Check out our new PWSWeather beta!
PWSweather.com
Personal Weather Stations
Station Observations

SkegnessGB

Lat: 53.147585, Lon: 0.345774

Elevation: 18

Station Type: Fine Offset WH3080

http://www.skegnessweather.info/

Latest ConditionsUpdated 6:40:00 PM GMT Monday, Feb 24, 2020
Currently Today's Max Today's Min Today's Average
Temperature 49.6°F9.8°C 55.0°F12.8°C 38.3°F3.5°C 46.2°F7.9°C
Dew Point 36.3°F2.4°C 48.7°F9.3°C 31.7°F-0.2°C 39.5°F4.2°C
Winds 14.3 mph SW23.0 kmh SW 26.4 mph -42.5 kmh - - 12.8 mph 20.6 kmh
Wind Gusts 19.2 mph30.9 kmh 28.5 mph45.9 kmh - -
Humidity 60% 91% 60% 78%
Pressure 29.46 in997.6 mb 30.14 in1020.7 mb 29.39 in995.3 mb -
Precipitation - 0.24 in6.1 mm - -
Hour Temp Dew Point Humidity Winds Wind Gusts Pressure Precip Precip Rate Daily Precip Total
06:40 PM 49.6°F9.8°C 36.3°F2.4°C 60% 14.3 mph SW23.0 kmh SW 19.2 mph30.9 kmh 29.46 in997.6 mb 0.00 in0.0 mm 0.00 in0.0 mm 0.24 in6.1 mm
06:30 PM 50.4°F10.2°C 37.8°F3.2°C 62% 17.4 mph SW28.0 kmh SW 28.5 mph45.9 kmh 29.45 in997.3 mb 0.00 in0.0 mm 0.00 in0.0 mm 0.24 in6.1 mm
06:20 PM 51.3°F10.7°C 39.1°F3.9°C 63% 13.9 mph WSW22.4 kmh WSW 16.0 mph25.7 kmh 29.45 in997.3 mb 0.00 in0.0 mm 0.00 in0.0 mm 0.24 in6.1 mm
06:10 PM 52.2°F11.2°C 42.3°F5.7°C 69% 15.6 mph SW25.1 kmh SW 22.6 mph36.4 kmh 29.43 in996.6 mb 0.00 in0.0 mm 0.00 in0.0 mm 0.24 in6.1 mm
05:56 PM 52.3°F11.3°C 42.5°F5.8°C 69% 26.4 mph SSW42.5 kmh SSW 15.7 mph25.3 kmh 29.42 in996.3 mb 0.00 in0.0 mm 0.00 in0.0 mm 0.11 in2.8 mm
05:55 PM 52.3°F11.3°C 42.5°F5.8°C 69% 21.2 mph SSW34.1 kmh SSW 15.7 mph25.3 kmh 29.42 in996.3 mb 0.00 in0.0 mm 0.00 in0.0 mm 0.11 in2.8 mm
05:50 PM 52.3°F11.3°C 42.5°F5.8°C 69% 12.2 mph S19.6 kmh S 16.0 mph25.7 kmh 29.41 in995.9 mb 0.00 in0.0 mm 0.00 in0.0 mm 0.11 in2.8 mm
05:40 PM 52.7°F11.5°C 42.8°F6.0°C 69% 15.9 mph WSW25.6 kmh WSW 16.7 mph26.9 kmh 29.42 in996.3 mb 0.00 in0.0 mm 0.00 in0.0 mm 0.24 in6.1 mm
05:30 PM 53.1°F11.7°C 43.2°F6.2°C 69% 15.5 mph SW24.9 kmh SW 15.0 mph24.1 kmh 29.41 in995.9 mb 0.00 in0.0 mm 0.00 in0.0 mm 0.24 in6.1 mm
05:20 PM 53.2°F11.8°C 43.3°F6.3°C 69% 14.5 mph SW23.3 kmh SW 16.0 mph25.7 kmh 29.40 in995.6 mb 0.00 in0.0 mm 0.00 in0.0 mm 0.24 in6.1 mm
05:10 PM 53.6°F12.0°C 41.7°F5.4°C 64% 14.3 mph SW23.0 kmh SW 14.3 mph23.0 kmh 29.40 in995.6 mb 0.00 in0.0 mm 0.00 in0.0 mm 0.24 in6.1 mm
05:00 PM 53.8°F12.1°C 42.3°F5.7°C 65% 14.9 mph SW24.0 kmh SW 16.0 mph25.7 kmh 29.40 in995.6 mb 0.00 in0.0 mm 0.00 in0.0 mm 0.24 in6.1 mm
04:50 PM 54.1°F12.3°C 42.6°F5.9°C 65% 15.4 mph SW24.8 kmh SW 14.3 mph23.0 kmh 29.40 in995.6 mb 0.00 in0.0 mm 0.00 in0.0 mm 0.24 in6.1 mm
04:40 PM 54.3°F12.4°C 43.6°F6.4°C 67% 14.3 mph SW23.0 kmh SW 15.0 mph24.1 kmh 29.39 in995.3 mb 0.00 in0.0 mm 0.00 in0.0 mm 0.24 in6.1 mm
04:30 PM 54.7°F12.6°C 45.1°F7.3°C 70% 15.3 mph S24.6 kmh S 19.2 mph30.9 kmh 29.40 in995.6 mb 0.00 in0.0 mm 0.00 in0.0 mm 0.24 in6.1 mm
04:20 PM 55.0°F12.8°C 45.4°F7.4°C 70% 15.5 mph E24.9 kmh E 17.5 mph28.2 kmh 29.39 in995.3 mb 0.00 in0.0 mm 0.00 in0.0 mm 0.24 in6.1 mm
04:10 PM 55.0°F12.8°C 45.4°F7.4°C 70% 16.0 mph S25.7 kmh S 19.2 mph30.9 kmh 29.39 in995.3 mb 0.00 in0.0 mm 0.00 in0.0 mm 0.24 in6.1 mm
04:00 PM 55.0°F12.8°C 45.8°F7.7°C 71% 15.1 mph SW24.3 kmh SW 16.0 mph25.7 kmh 29.40 in995.6 mb 0.00 in0.0 mm 0.00 in0.0 mm 0.24 in6.1 mm
03:50 PM 55.0°F12.8°C 46.2°F7.9°C 72% 15.5 mph SW24.9 kmh SW 18.5 mph29.8 kmh 29.39 in995.3 mb 0.00 in0.0 mm 0.00 in0.0 mm 0.24 in6.1 mm
03:40 PM 54.9°F12.7°C 46.0°F7.8°C 72% 15.3 mph SW24.6 kmh SW 21.7 mph34.9 kmh 29.39 in995.3 mb 0.00 in0.0 mm 0.00 in0.0 mm 0.24 in6.1 mm
03:30 PM 54.9°F12.7°C 46.0°F7.8°C 72% 18.8 mph SW30.3 kmh SW 17.5 mph28.2 kmh 29.39 in995.3 mb 0.00 in0.0 mm 0.00 in0.0 mm 0.24 in6.1 mm
03:20 PM 55.0°F12.8°C 46.2°F7.9°C 72% 17.2 mph WSW27.7 kmh WSW 21.7 mph34.9 kmh 29.39 in995.3 mb 0.00 in0.0 mm 0.00 in0.0 mm 0.24 in6.1 mm
03:10 PM 54.9°F12.7°C 46.0°F7.8°C 72% 16.8 mph SSE27.0 kmh SSE 21.7 mph34.9 kmh 29.39 in995.3 mb 0.00 in0.0 mm 0.00 in0.0 mm 0.24 in6.1 mm
03:00 PM 54.9°F12.7°C 46.4°F8.0°C 73% 18.1 mph SSW29.1 kmh SSW 17.5 mph28.2 kmh 29.39 in995.3 mb 0.00 in0.0 mm 0.00 in0.0 mm 0.24 in6.1 mm
02:50 PM 54.5°F12.5°C 46.0°F7.8°C 73% 18.7 mph SW30.1 kmh SW 20.2 mph32.5 kmh 29.40 in995.6 mb 0.00 in0.0 mm 0.00 in0.0 mm 0.24 in6.1 mm
02:40 PM 54.5°F12.5°C 46.0°F7.8°C 73% 19.5 mph SW31.4 kmh SW 17.5 mph28.2 kmh 29.40 in995.6 mb 0.00 in0.0 mm 0.00 in0.0 mm 0.24 in6.1 mm
02:30 PM 54.3°F12.4°C 45.8°F7.7°C 73% 18.8 mph SW30.3 kmh SW 21.7 mph34.9 kmh 29.41 in995.9 mb 0.00 in0.0 mm 0.00 in0.0 mm 0.24 in6.1 mm
02:20 PM 54.0°F12.2°C 45.9°F7.7°C 74% 20.0 mph SW32.2 kmh SW 23.4 mph37.7 kmh 29.41 in995.9 mb 0.00 in0.0 mm 0.00 in0.0 mm 0.24 in6.1 mm
02:10 PM 54.0°F12.2°C 45.9°F7.7°C 74% 21.1 mph SW34.0 kmh SW 25.8 mph41.5 kmh 29.41 in995.9 mb 0.00 in0.0 mm 0.00 in0.0 mm 0.24 in6.1 mm
02:00 PM 53.6°F12.0°C 45.9°F7.7°C 75% 17.8 mph S28.6 kmh S 21.7 mph34.9 kmh 29.42 in996.3 mb 0.00 in0.0 mm 0.00 in0.0 mm 0.24 in6.1 mm
01:50 PM 53.6°F12.0°C 45.9°F7.7°C 75% 18.8 mph SW30.3 kmh SW 20.9 mph33.6 kmh 29.42 in996.3 mb 0.00 in0.0 mm 0.00 in0.0 mm 0.24 in6.1 mm
01:40 PM 53.4°F11.9°C 47.1°F8.4°C 79% 18.2 mph WNW29.3 kmh WNW 19.2 mph30.9 kmh 29.42 in996.3 mb 0.00 in0.0 mm 0.00 in0.0 mm 0.24 in6.1 mm
01:30 PM 53.2°F11.8°C 46.9°F8.3°C 79% 19.1 mph WSW30.7 kmh WSW 20.9 mph33.6 kmh 29.43 in996.6 mb 0.00 in0.0 mm 0.00 in0.0 mm 0.24 in6.1 mm
01:20 PM 53.2°F11.8°C 47.2°F8.4°C 80% 20.6 mph SSW33.2 kmh SSW 20.9 mph33.6 kmh 29.44 in997.0 mb 0.00 in0.0 mm 0.00 in0.0 mm 0.24 in6.1 mm
01:10 PM 53.1°F11.7°C 47.7°F8.7°C 82% 18.4 mph SE29.6 kmh SE 17.5 mph28.2 kmh 29.44 in997.0 mb 0.00 in0.0 mm 0.00 in0.0 mm 0.24 in6.1 mm
01:00 PM 52.7°F11.5°C 48.0°F8.9°C 84% 19.1 mph S30.7 kmh S 18.5 mph29.8 kmh 29.45 in997.3 mb 0.00 in0.0 mm 0.00 in0.0 mm 0.24 in6.1 mm
12:50 PM 52.3°F11.3°C 48.6°F9.2°C 87% 19.7 mph S31.7 kmh S 19.2 mph30.9 kmh 29.45 in997.3 mb 0.00 in0.0 mm 0.00 in0.0 mm 0.24 in6.1 mm
12:40 PM 51.8°F11.0°C 48.7°F9.3°C 89% 17.1 mph SW27.5 kmh SW 19.2 mph30.9 kmh 29.46 in997.6 mb 0.00 in0.0 mm 0.00 in0.0 mm 0.24 in6.1 mm
12:30 PM 51.4°F10.8°C 48.6°F9.2°C 90% 18.0 mph SW29.0 kmh SW 16.7 mph26.9 kmh 29.47 in998.0 mb 0.00 in0.0 mm 0.00 in0.0 mm 0.24 in6.1 mm
12:20 PM 51.1°F10.6°C 48.2°F9.0°C 90% 15.6 mph SW25.1 kmh SW 16.7 mph26.9 kmh 29.48 in998.3 mb 0.00 in0.0 mm 0.00 in0.0 mm 0.24 in6.1 mm
12:10 PM 50.7°F10.4°C 47.9°F8.8°C 90% 16.0 mph S25.7 kmh S 14.3 mph23.0 kmh 29.48 in998.3 mb 0.00 in0.0 mm 0.00 in0.0 mm 0.24 in6.1 mm
12:00 PM 50.4°F10.2°C 47.5°F8.6°C 90% 15.8 mph SW25.4 kmh SW 17.5 mph28.2 kmh 29.49 in998.6 mb 0.01 in0.3 mm 0.00 in0.0 mm 0.24 in6.1 mm
11:50 AM 50.0°F10.0°C 47.2°F8.4°C 90% 14.4 mph S23.2 kmh S 17.5 mph28.2 kmh 29.49 in998.6 mb 0.01 in0.3 mm 0.00 in0.0 mm 0.24 in6.1 mm
11:40 AM 49.6°F9.8°C 46.8°F8.2°C 90% 13.6 mph SSW21.9 kmh SSW 14.3 mph23.0 kmh 29.50 in999.0 mb 0.01 in0.3 mm 0.00 in0.0 mm 0.24 in6.1 mm
11:30 AM 49.5°F9.7°C 46.6°F8.1°C 90% 14.0 mph SW22.5 kmh SW 15.0 mph24.1 kmh 29.50 in999.0 mb 0.01 in0.3 mm 0.00 in0.0 mm 0.24 in6.1 mm
11:20 AM 49.1°F9.5°C 46.3°F7.9°C 90% 12.8 mph SW20.6 kmh SW 14.3 mph23.0 kmh 29.51 in999.3 mb 0.02 in0.5 mm 0.00 in0.0 mm 0.24 in6.1 mm
11:10 AM 48.7°F9.3°C 45.6°F7.6°C 89% 11.5 mph SW18.5 kmh SW 11.8 mph19.0 kmh 29.52 in999.7 mb 0.02 in0.5 mm 0.06 in1.5 mm 0.24 in6.1 mm
11:00 AM 48.4°F9.1°C 45.3°F7.4°C 89% 12.5 mph SSW20.1 kmh SSW 13.3 mph21.4 kmh 29.52 in999.7 mb 0.01 in0.3 mm 0.00 in0.0 mm 0.22 in5.6 mm
10:50 AM 47.8°F8.8°C 44.8°F7.1°C 89% 15.1 mph S24.3 kmh S 19.2 mph30.9 kmh 29.52 in999.7 mb 0.02 in0.5 mm 0.00 in0.0 mm 0.22 in5.6 mm
10:40 AM 47.5°F8.6°C 44.4°F6.9°C 89% 16.5 mph SSW26.6 kmh SSW 19.2 mph30.9 kmh 29.53 in1000.0 mb 0.04 in1.0 mm 0.00 in0.0 mm 0.22 in5.6 mm
10:30 AM 47.3°F8.5°C 43.9°F6.6°C 88% 15.8 mph S25.4 kmh S 18.5 mph29.8 kmh 29.54 in1000.3 mb 0.04 in1.0 mm 0.00 in0.0 mm 0.22 in5.6 mm
10:20 AM 46.9°F8.3°C 43.6°F6.4°C 88% 16.4 mph S26.4 kmh S 16.7 mph26.9 kmh 29.55 in1000.7 mb 0.04 in1.0 mm 0.00 in0.0 mm 0.21 in5.3 mm
10:10 AM 46.4°F8.0°C 43.0°F6.1°C 88% 17.9 mph SSW28.8 kmh SSW 20.2 mph32.5 kmh 29.56 in1001.0 mb 0.04 in1.0 mm 0.00 in0.0 mm 0.21 in5.3 mm
10:00 AM 46.0°F7.8°C 42.4°F5.8°C 87% 18.0 mph SSW29.0 kmh SSW 17.5 mph28.2 kmh 29.56 in1001.0 mb 0.05 in1.3 mm 0.00 in0.0 mm 0.21 in5.3 mm
09:50 AM 45.5°F7.5°C 41.9°F5.5°C 87% 18.4 mph S29.6 kmh S 19.2 mph30.9 kmh 29.57 in1001.4 mb 0.05 in1.3 mm 0.06 in1.5 mm 0.20 in5.1 mm
09:40 AM 45.3°F7.4°C 41.7°F5.4°C 87% 21.8 mph S35.1 kmh S 23.4 mph37.7 kmh 29.58 in1001.7 mb 0.04 in1.0 mm 0.00 in0.0 mm 0.19 in4.8 mm
09:30 AM 45.0°F7.2°C 41.0°F5.0°C 86% 24.0 mph SSE38.6 kmh SSE 23.4 mph37.7 kmh 29.58 in1001.7 mb 0.05 in1.3 mm 0.00 in0.0 mm 0.19 in4.8 mm
09:20 AM 44.4°F6.9°C 42.0°F5.6°C 91% 22.3 mph S35.9 kmh S 20.2 mph32.5 kmh 29.59 in1002.0 mb 0.05 in1.3 mm 0.00 in0.0 mm 0.18 in4.6 mm
09:10 AM 44.1°F6.7°C 41.6°F5.3°C 91% 25.5 mph S41.0 kmh S 23.4 mph37.7 kmh 29.60 in1002.4 mb 0.07 in1.8 mm 0.00 in0.0 mm 0.18 in4.6 mm
09:00 AM 43.7°F6.5°C 41.0°F5.0°C 90% 21.5 mph S34.6 kmh S 23.4 mph37.7 kmh 29.61 in1002.7 mb 0.07 in1.8 mm 0.00 in0.0 mm 0.17 in4.3 mm
08:50 AM 43.2°F6.2°C 40.4°F4.7°C 90% 24.1 mph S38.8 kmh S 23.4 mph37.7 kmh 29.62 in1003.0 mb 0.07 in1.8 mm 0.00 in0.0 mm 0.15 in3.8 mm
08:40 AM 42.8°F6.0°C 40.1°F4.5°C 90% 21.6 mph S34.8 kmh S 20.9 mph33.6 kmh 29.64 in1003.7 mb 0.09 in2.3 mm 0.06 in1.5 mm 0.15 in3.8 mm
08:30 AM 42.4°F5.8°C 39.4°F4.1°C 89% 20.2 mph SE32.5 kmh SE 21.7 mph34.9 kmh 29.65 in1004.1 mb 0.08 in2.0 mm 0.00 in0.0 mm 0.14 in3.6 mm
08:20 AM 42.1°F5.6°C 38.8°F3.8°C 88% 17.3 mph SSE27.8 kmh SSE 18.5 mph29.8 kmh 29.66 in1004.4 mb 0.08 in2.0 mm 0.06 in1.5 mm 0.13 in3.3 mm
08:10 AM 41.9°F5.5°C 38.3°F3.5°C 87% 17.4 mph S28.0 kmh S 18.5 mph29.8 kmh 29.68 in1005.1 mb 0.07 in1.8 mm 0.00 in0.0 mm 0.11 in2.8 mm
08:00 AM 41.4°F5.2°C 37.5°F3.1°C 86% 12.8 mph E20.6 kmh E 12.5 mph20.1 kmh 29.69 in1005.4 mb 0.07 in1.8 mm 0.00 in0.0 mm 0.09 in2.3 mm
07:50 AM 41.2°F5.1°C 37.0°F2.8°C 85% 11.2 mph SE18.0 kmh SE 17.5 mph28.2 kmh 29.71 in1006.1 mb 0.07 in1.8 mm 0.12 in3.0 mm 0.08 in2.0 mm
07:40 AM 40.8°F4.9°C 36.4°F2.4°C 84% 14.2 mph SE22.9 kmh SE 18.5 mph29.8 kmh 29.72 in1006.4 mb 0.05 in1.3 mm 0.00 in0.0 mm 0.06 in1.5 mm
07:30 AM 40.5°F4.7°C 35.7°F2.1°C 83% 12.7 mph SSE20.4 kmh SSE 15.0 mph24.1 kmh 29.73 in1006.8 mb 0.05 in1.3 mm 0.00 in0.0 mm 0.06 in1.5 mm
07:20 AM 40.3°F4.6°C 35.2°F1.8°C 82% 12.8 mph SSE20.6 kmh SSE 16.0 mph25.7 kmh 29.73 in1006.8 mb 0.05 in1.3 mm 0.06 in1.5 mm 0.05 in1.3 mm
07:10 AM 40.1°F4.5°C 34.7°F1.5°C 81% 11.8 mph SE19.0 kmh SE 15.0 mph24.1 kmh 29.76 in1007.8 mb 0.04 in1.0 mm 0.12 in3.0 mm 0.04 in1.0 mm
07:00 AM 39.9°F4.4°C 34.2°F1.2°C 80% 8.9 mph SSE14.3 kmh SSE 11.8 mph19.0 kmh 29.77 in1008.1 mb 0.02 in0.5 mm 0.01 in0.3 mm 0.02 in0.5 mm
06:50 AM 39.9°F4.4°C 33.9°F1.1°C 79% 9.8 mph S15.8 kmh S 12.5 mph20.1 kmh 29.80 in1009.1 mb 0.01 in0.3 mm 0.00 in0.0 mm 0.01 in0.3 mm
06:40 AM 40.1°F4.5°C 33.1°F0.6°C 76% 11.3 mph SE18.2 kmh SE 16.0 mph25.7 kmh 29.83 in1010.2 mb 0.01 in0.3 mm 0.00 in0.0 mm 0.01 in0.3 mm
06:30 AM 40.5°F4.7°C 32.1°F0.1°C 72% 13.4 mph SE21.6 kmh SE 17.5 mph28.2 kmh 29.83 in1010.2 mb 0.01 in0.3 mm 0.06 in1.5 mm 0.01 in0.3 mm
06:20 AM 41.4°F5.2°C 31.9°F-0.1°C 69% 17.9 mph SE28.8 kmh SE 22.6 mph36.4 kmh 29.85 in1010.8 mb 0.00 in0.0 mm 0.00 in0.0 mm 0.00 in0.0 mm
06:10 AM 41.9°F5.5°C 32.1°F0.1°C 68% 11.5 mph S18.5 kmh S 15.0 mph24.1 kmh 29.86 in1011.2 mb 0.00 in0.0 mm 0.00 in0.0 mm 0.00 in0.0 mm
06:00 AM 42.1°F5.6°C 32.3°F0.2°C 68% 12.0 mph SSE19.3 kmh SSE 13.3 mph21.4 kmh 29.87 in1011.5 mb 0.00 in0.0 mm 0.00 in0.0 mm 0.00 in0.0 mm
05:50 AM 42.3°F5.7°C 32.4°F0.2°C 68% 9.8 mph SE15.8 kmh SE 12.5 mph20.1 kmh 29.88 in1011.9 mb 0.00 in0.0 mm 0.00 in0.0 mm 0.00 in0.0 mm
05:40 AM 42.3°F5.7°C 32.4°F0.2°C 68% 7.9 mph SSE12.7 kmh SSE 15.0 mph24.1 kmh 29.89 in1012.2 mb 0.00 in0.0 mm 0.00 in0.0 mm 0.00 in0.0 mm
05:30 AM 42.4°F5.8°C 32.6°F0.3°C 68% 7.7 mph SSW12.4 kmh SSW 10.8 mph17.4 kmh 29.90 in1012.5 mb 0.00 in0.0 mm 0.00 in0.0 mm 0.00 in0.0 mm
05:20 AM 42.3°F5.7°C 32.8°F0.4°C 69% 7.7 mph S12.4 kmh S 10.8 mph17.4 kmh 29.91 in1012.9 mb 0.00 in0.0 mm 0.00 in0.0 mm 0.00 in0.0 mm
05:10 AM 42.3°F5.7°C 33.2°F0.7°C 70% 7.5 mph E12.1 kmh E 7.6 mph12.2 kmh 29.92 in1013.2 mb 0.00 in0.0 mm 0.00 in0.0 mm 0.00 in0.0 mm
05:00 AM 41.9°F5.5°C 33.2°F0.7°C 71% 6.1 mph S9.8 kmh S 9.1 mph14.6 kmh 29.93 in1013.5 mb 0.00 in0.0 mm 0.00 in0.0 mm 0.00 in0.0 mm
04:50 AM 41.4°F5.2°C 33.0°F0.6°C 72% 4.0 mph SE6.4 kmh SE 5.9 mph9.5 kmh 29.94 in1013.9 mb 0.00 in0.0 mm 0.00 in0.0 mm 0.00 in0.0 mm
04:40 AM 41.0°F5.0°C 32.7°F0.4°C 72% 3.4 mph SSE5.5 kmh SSE 4.2 mph6.8 kmh 29.95 in1014.2 mb 0.00 in0.0 mm 0.00 in0.0 mm 0.00 in0.0 mm
04:30 AM 40.6°F4.8°C 32.3°F0.2°C 72% 1.7 mph S2.7 kmh S 3.4 mph5.5 kmh 29.96 in1014.6 mb 0.00 in0.0 mm 0.00 in0.0 mm 0.00 in0.0 mm
04:20 AM 40.6°F4.8°C 32.0°F0.0°C 71% 3.1 mph SE5.0 kmh SE 4.2 mph6.8 kmh 29.98 in1015.2 mb 0.00 in0.0 mm 0.00 in0.0 mm 0.00 in0.0 mm
04:10 AM 40.8°F4.9°C 32.1°F0.1°C 71% 5.6 mph SSE9.0 kmh SSE 5.9 mph9.5 kmh 30.00 in1015.9 mb 0.00 in0.0 mm 0.00 in0.0 mm 0.00 in0.0 mm
04:00 AM 41.0°F5.0°C 32.3°F0.2°C 71% 7.0 mph S11.3 kmh S 8.4 mph13.5 kmh 30.02 in1016.6 mb 0.00 in0.0 mm 0.00 in0.0 mm 0.00 in0.0 mm
03:50 AM 41.2°F5.1°C 32.5°F0.3°C 71% 7.7 mph SSE12.4 kmh SSE 10.1 mph16.3 kmh 30.02 in1016.6 mb 0.00 in0.0 mm 0.00 in0.0 mm 0.00 in0.0 mm
03:40 AM 41.5°F5.3°C 32.5°F0.3°C 70% 7.7 mph SW12.4 kmh SW 10.1 mph16.3 kmh 30.04 in1017.3 mb 0.00 in0.0 mm 0.00 in0.0 mm 0.00 in0.0 mm
03:30 AM 41.5°F5.3°C 33.2°F0.7°C 72% 11.3 mph SSE18.2 kmh SSE 11.8 mph19.0 kmh 30.04 in1017.3 mb 0.00 in0.0 mm 0.00 in0.0 mm 0.00 in0.0 mm
03:20 AM 40.8°F4.9°C 34.2°F1.2°C 77% 6.3 mph S10.1 kmh S 9.1 mph14.6 kmh 30.04 in1017.3 mb 0.00 in0.0 mm 0.00 in0.0 mm 0.00 in0.0 mm
03:10 AM 40.5°F4.7°C 34.1°F1.2°C 78% 4.3 mph S6.9 kmh S 4.2 mph6.8 kmh 30.05 in1017.6 mb 0.00 in0.0 mm 0.00 in0.0 mm 0.00 in0.0 mm
03:00 AM 40.3°F4.6°C 34.3°F1.3°C 79% 6.1 mph S9.8 kmh S 6.6 mph10.6 kmh 30.05 in1017.6 mb 0.00 in0.0 mm 0.00 in0.0 mm 0.00 in0.0 mm
02:50 AM 40.1°F4.5°C 34.1°F1.2°C 79% 5.4 mph S8.7 kmh S 4.9 mph7.9 kmh 30.06 in1017.9 mb 0.00 in0.0 mm 0.00 in0.0 mm 0.00 in0.0 mm
02:40 AM 39.7°F4.3°C 34.1°F1.2°C 80% 5.2 mph S8.4 kmh S 4.9 mph7.9 kmh 30.07 in1018.3 mb 0.00 in0.0 mm 0.00 in0.0 mm 0.00 in0.0 mm
02:30 AM 39.4°F4.1°C 33.7°F0.9°C 80% 2.7 mph S4.3 kmh S 4.2 mph6.8 kmh 30.09 in1019.0 mb 0.00 in0.0 mm 0.00 in0.0 mm 0.00 in0.0 mm
02:20 AM 39.2°F4.0°C 33.5°F0.8°C 80% 1.7 mph SW2.7 kmh SW 3.4 mph5.5 kmh 30.09 in1019.0 mb 0.00 in0.0 mm 0.00 in0.0 mm 0.00 in0.0 mm
02:10 AM 39.2°F4.0°C 33.5°F0.8°C 80% 1.6 mph SSW2.6 kmh SSW 2.5 mph4.0 kmh 30.10 in1019.3 mb 0.00 in0.0 mm 0.00 in0.0 mm 0.00 in0.0 mm
02:00 AM 39.0°F3.9°C 33.4°F0.8°C 80% 3.4 mph S5.5 kmh S 3.4 mph5.5 kmh 30.11 in1019.6 mb 0.00 in0.0 mm 0.00 in0.0 mm 0.00 in0.0 mm
01:50 AM 39.0°F3.9°C 33.4°F0.8°C 80% 2.5 mph S4.0 kmh S 4.2 mph6.8 kmh 30.12 in1020.0 mb 0.00 in0.0 mm 0.00 in0.0 mm 0.00 in0.0 mm
01:40 AM 38.8°F3.8°C 33.2°F0.7°C 80% 3.1 mph SW5.0 kmh SW 3.4 mph5.5 kmh 30.12 in1020.0 mb 0.00 in0.0 mm 0.00 in0.0 mm 0.00 in0.0 mm
01:30 AM 38.7°F3.7°C 33.0°F0.6°C 80% 3.2 mph S5.1 kmh S 3.4 mph5.5 kmh 30.11 in1019.6 mb 0.00 in0.0 mm 0.00 in0.0 mm 0.00 in0.0 mm
01:20 AM 38.7°F3.7°C 33.0°F0.6°C 80% 2.7 mph SSE4.3 kmh SSE 5.9 mph9.5 kmh 30.13 in1020.3 mb 0.00 in0.0 mm 0.00 in0.0 mm 0.00 in0.0 mm
01:10 AM 38.7°F3.7°C 32.7°F0.4°C 79% 3.3 mph SE5.3 kmh SE 4.2 mph6.8 kmh 30.13 in1020.3 mb 0.00 in0.0 mm 0.00 in0.0 mm 0.00 in0.0 mm
01:00 AM 38.5°F3.6°C 32.5°F0.3°C 79% 2.4 mph WSW3.9 kmh WSW 4.2 mph6.8 kmh 30.13 in1020.3 mb 0.00 in0.0 mm 0.00 in0.0 mm 0.00 in0.0 mm
12:50 AM 38.3°F3.5°C 32.0°F0.0°C 78% 1.6 mph SW2.6 kmh SW 2.5 mph4.0 kmh 30.14 in1020.7 mb 0.00 in0.0 mm 0.00 in0.0 mm 0.00 in0.0 mm
12:40 AM 38.3°F3.5°C 32.0°F0.0°C 78% 2.3 mph WSW3.7 kmh WSW 3.4 mph5.5 kmh 30.14 in1020.7 mb 0.00 in0.0 mm 0.00 in0.0 mm 0.00 in0.0 mm
12:30 AM 38.3°F3.5°C 31.7°F-0.2°C 77% 1.7 mph WSW2.7 kmh WSW 2.5 mph4.0 kmh 30.14 in1020.7 mb 0.00 in0.0 mm 0.00 in0.0 mm 0.00 in0.0 mm
12:20 AM 38.3°F3.5°C 31.7°F-0.2°C 77% 2.0 mph SW3.2 kmh SW 2.5 mph4.0 kmh 30.14 in1020.7 mb 0.00 in0.0 mm 0.00 in0.0 mm 0.00 in0.0 mm
12:10 AM 38.5°F3.6°C 31.9°F-0.1°C 77% 1.7 mph SW2.7 kmh SW 3.4 mph5.5 kmh 30.14 in1020.7 mb 0.00 in0.0 mm 0.00 in0.0 mm 0.00 in0.0 mm
12:00 AM 38.5°F3.6°C 31.9°F-0.1°C 77% 1.4 mph S2.3 kmh S 2.5 mph4.0 kmh 30.14 in1020.7 mb 0.00 in0.0 mm 0.00 in0.0 mm 0.00 in0.0 mm